createdAt,value
2018-08-22T00:02:50.278Z,70.94
2018-08-22T00:05:55.165Z,70.88
2018-08-22T00:09:00.082Z,70.63
2018-08-22T00:12:05.000Z,70.98
2018-08-22T00:15:09.924Z,71.47
2018-08-22T00:18:14.792Z,73.32
2018-08-22T00:21:19.665Z,73.07
2018-08-22T00:24:24.551Z,72.36
2018-08-22T00:27:29.453Z,72.30
2018-08-22T00:30:34.332Z,71.65
2018-08-22T00:33:39.220Z,71.46
2018-08-22T00:36:44.234Z,70.87
2018-08-22T00:39:49.165Z,71.81
2018-08-22T00:42:54.104Z,71.18
2018-08-22T00:45:59.148Z,71.59
2018-08-22T00:49:04.033Z,71.29
2018-08-22T00:52:08.924Z,73.00
2018-08-22T00:55:13.832Z,72.93
2018-08-22T00:58:18.728Z,71.98
2018-08-22T01:01:23.668Z,71.82
2018-08-22T01:04:28.592Z,71.99
2018-08-22T01:07:33.505Z,71.51
2018-08-22T01:10:38.445Z,71.77
2018-08-22T01:13:43.368Z,72.22
2018-08-22T01:16:48.312Z,72.74
2018-08-22T01:19:53.282Z,72.59
2018-08-22T01:22:58.212Z,71.30
2018-08-22T01:26:03.165Z,72.00
2018-08-22T01:29:08.092Z,72.16
2018-08-22T01:32:13.008Z,71.47
2018-08-22T01:35:17.912Z,71.57
2018-08-22T01:38:22.839Z,71.78
2018-08-22T01:41:27.784Z,72.27
2018-08-22T01:44:32.688Z,72.60
2018-08-22T01:47:37.600Z,72.40
2018-08-22T01:50:42.521Z,72.62
2018-08-22T01:53:47.437Z,71.74
2018-08-22T01:56:52.368Z,72.11
2018-08-22T01:59:57.312Z,72.67
2018-08-22T02:03:02.241Z,73.61
2018-08-22T02:06:07.186Z,72.81
2018-08-22T02:09:12.104Z,72.91
2018-08-22T02:12:17.013Z,72.59
2018-08-22T02:15:21.928Z,73.08
2018-08-22T02:18:26.831Z,74.45
2018-08-22T02:21:31.760Z,74.48
2018-08-22T02:24:36.688Z,75.10
2018-08-22T02:27:41.609Z,73.64
2018-08-22T02:30:46.529Z,74.08
2018-08-22T02:33:51.462Z,73.81
2018-08-22T02:36:56.385Z,73.97
2018-08-22T02:40:01.314Z,74.06
2018-08-22T02:43:06.224Z,74.86
2018-08-22T02:46:11.160Z,73.37
2018-08-22T02:49:16.079Z,73.70
2018-08-22T02:52:21.181Z,74.54
2018-08-22T02:55:26.105Z,73.55
2018-08-22T02:58:31.037Z,74.54
2018-08-22T03:01:35.985Z,74.04
2018-08-22T03:04:40.913Z,73.88
2018-08-22T03:07:45.820Z,74.85
2018-08-22T03:10:50.766Z,75.21
2018-08-22T03:13:55.712Z,75.35
2018-08-22T03:17:00.624Z,75.31
2018-08-22T03:20:05.836Z,75.14
2018-08-22T03:23:10.755Z,74.77
2018-08-22T03:26:15.743Z,74.13
2018-08-22T03:29:20.625Z,75.03
2018-08-22T03:32:25.540Z,74.14
2018-08-22T03:35:30.469Z,73.76
2018-08-22T03:38:35.372Z,74.66
2018-08-22T03:41:40.293Z,73.82
2018-08-22T03:44:45.216Z,73.73
2018-08-22T03:47:50.133Z,74.35
2018-08-22T03:50:55.096Z,74.29
2018-08-22T03:54:00.205Z,74.28
2018-08-22T03:57:05.139Z,74.19
2018-08-22T04:00:10.530Z,75.38
2018-08-22T04:03:15.404Z,74.90
2018-08-22T04:07:08.836Z,75.29
2018-08-22T04:10:13.741Z,75.41
2018-08-22T04:13:18.616Z,75.73
2018-08-22T04:16:23.504Z,75.44
2018-08-22T04:19:28.395Z,74.74
2018-08-22T04:22:33.868Z,75.04
2018-08-22T04:25:38.777Z,74.22
2018-08-22T04:28:43.672Z,74.20
2018-08-22T04:31:48.553Z,75.63
2018-08-22T04:34:53.455Z,74.96
2018-08-22T04:37:58.330Z,75.40
2018-08-22T04:41:03.241Z,74.69
2018-08-22T04:44:08.112Z,75.35
2018-08-22T04:47:13.029Z,75.41
2018-08-22T04:50:17.929Z,75.65
2018-08-22T04:53:22.832Z,76.19
2018-08-22T04:56:27.730Z,75.66
2018-08-22T04:59:32.677Z,76.52
2018-08-22T05:02:37.912Z,75.43
2018-08-22T05:05:42.848Z,76.23
2018-08-22T05:08:47.768Z,76.86
2018-08-22T05:11:52.693Z,75.62
2018-08-22T05:14:57.661Z,76.01
2018-08-22T05:18:02.578Z,75.25
2018-08-22T05:21:07.500Z,75.53
2018-08-22T05:24:12.582Z,75.10
2018-08-22T05:27:17.510Z,75.51
2018-08-22T05:30:22.437Z,74.91
2018-08-22T05:33:27.384Z,74.29
2018-08-22T05:36:32.324Z,73.34
2018-08-22T05:39:37.240Z,73.97
2018-08-22T05:42:42.169Z,73.02
2018-08-22T05:45:47.152Z,73.85
2018-08-22T05:48:52.085Z,74.42
2018-08-22T05:51:57.777Z,74.56
2018-08-22T05:55:02.756Z,73.09
2018-08-22T05:58:07.690Z,72.82
2018-08-22T06:01:12.628Z,72.43
2018-08-22T06:04:17.551Z,72.55
2018-08-22T06:07:22.489Z,71.58
2018-08-22T06:10:27.433Z,72.06
2018-08-22T06:13:32.378Z,72.53
2018-08-22T06:16:37.309Z,70.42
2018-08-22T06:19:42.244Z,70.18
2018-08-22T06:22:47.188Z,70.26
2018-08-22T06:25:52.129Z,70.24
2018-08-22T06:28:57.053Z,69.47
2018-08-22T06:32:02.006Z,67.82
2018-08-22T06:35:07.107Z,68.26
2018-08-22T06:38:12.087Z,66.98
2018-08-22T06:41:16.996Z,66.21
2018-08-22T06:44:21.999Z,65.16
2018-08-22T06:47:26.964Z,65.63
2018-08-22T06:50:31.890Z,64.96
2018-08-22T06:53:58.473Z,64.62
2018-08-22T06:57:03.881Z,62.74
2018-08-22T07:00:08.776Z,61.12
2018-08-22T07:03:14.697Z,61.06
2018-08-22T07:06:19.653Z,59.40
2018-08-22T07:09:24.577Z,59.80
2018-08-22T07:12:29.553Z,57.80
2018-08-22T07:15:34.816Z,57.79
2018-08-22T07:18:47.304Z,55.66
2018-08-22T07:21:52.314Z,52.47
2018-08-22T07:24:57.305Z,52.27
2018-08-22T07:28:02.305Z,52.52
2018-08-22T07:31:07.543Z,51.05
2018-08-22T07:34:12.538Z,50.66
2018-08-22T07:37:18.124Z,51.32
2018-08-22T07:40:23.077Z,47.30
2018-08-22T07:43:28.049Z,46.78
2018-08-22T07:46:33.000Z,47.28
2018-08-22T07:49:38.190Z,46.80
2018-08-22T07:52:47.213Z,47.84
2018-08-22T07:55:52.181Z,45.85
2018-08-22T07:59:09.965Z,43.44
2018-08-22T08:02:14.912Z,43.43
2018-08-22T08:05:20.019Z,44.63
2018-08-22T08:08:24.957Z,44.23
2018-08-22T08:11:30.376Z,44.15
2018-08-22T08:14:35.628Z,43.88
2018-08-22T08:17:40.567Z,43.67
2018-08-22T08:20:45.816Z,44.73
2018-08-22T08:23:50.773Z,44.94
2018-08-22T08:26:56.027Z,45.19
2018-08-22T08:30:00.973Z,45.94
2018-08-22T08:33:05.920Z,45.93
2018-08-22T08:36:10.877Z,42.99
2018-08-22T08:39:15.807Z,42.97
2018-08-22T08:42:20.727Z,43.16
2018-08-22T08:45:26.007Z,40.98
2018-08-22T08:48:30.961Z,39.79
2018-08-22T08:51:40.566Z,40.39
2018-08-22T08:54:45.524Z,40.36
2018-08-22T08:57:50.461Z,39.60
2018-08-22T09:00:55.460Z,40.16
2018-08-22T09:04:00.526Z,39.15
2018-08-22T09:07:05.354Z,38.55
2018-08-22T09:10:10.293Z,37.66
2018-08-22T09:13:15.236Z,37.07
2018-08-22T09:16:20.330Z,38.61
2018-08-22T09:19:25.302Z,37.17
2018-08-22T09:22:30.253Z,37.39
2018-08-22T09:25:35.206Z,36.76
2018-08-22T09:28:40.147Z,34.41
2018-08-22T09:31:45.097Z,34.76
2018-08-22T09:34:50.032Z,34.54
2018-08-22T09:37:54.969Z,33.08
2018-08-22T09:40:59.895Z,33.32
2018-08-22T09:44:05.216Z,32.53
2018-08-22T09:47:10.149Z,30.80
2018-08-22T09:50:15.083Z,31.50
2018-08-22T09:53:20.017Z,33.29
2018-08-22T09:56:24.956Z,33.20
2018-08-22T09:59:29.925Z,32.02
2018-08-22T10:02:34.841Z,30.72
2018-08-22T10:05:39.772Z,31.06
2018-08-22T10:08:44.753Z,30.78
2018-08-22T10:11:49.700Z,29.28
2018-08-22T10:14:54.645Z,30.15
2018-08-22T10:17:59.577Z,28.70
2018-08-22T10:21:04.536Z,27.68
2018-08-22T10:24:09.477Z,30.16
2018-08-22T10:27:14.429Z,29.57
2018-08-22T10:30:19.364Z,29.78
2018-08-22T10:33:24.297Z,30.22
2018-08-22T10:36:29.225Z,30.68
2018-08-22T10:39:34.204Z,30.63
2018-08-22T10:42:39.104Z,30.21
2018-08-22T10:45:44.050Z,29.10
2018-08-22T10:48:49.201Z,30.10
2018-08-22T10:51:54.136Z,30.65
2018-08-22T10:54:59.102Z,31.24
2018-08-22T10:58:04.464Z,29.80
2018-08-22T11:01:09.373Z,29.93
2018-08-22T11:04:14.288Z,30.17
2018-08-22T11:07:19.200Z,29.62
2018-08-22T11:10:24.096Z,29.49
2018-08-22T11:13:29.021Z,29.83
2018-08-22T11:16:33.937Z,29.73
2018-08-22T11:19:38.828Z,31.54
2018-08-22T11:22:55.141Z,31.09
2018-08-22T11:26:12.339Z,29.39
2018-08-22T11:29:28.889Z,28.64
2018-08-22T11:32:45.411Z,28.34
2018-08-22T11:35:49.476Z,28.74
2018-08-22T11:38:54.409Z,30.27
2018-08-22T11:41:59.397Z,30.71
2018-08-22T11:45:04.300Z,30.40
2018-08-22T11:48:09.205Z,29.81
2018-08-22T11:51:14.249Z,30.02
2018-08-22T11:54:19.197Z,29.19
2018-08-22T11:57:24.082Z,30.36
2018-08-22T12:00:29.889Z,30.31
2018-08-22T12:03:34.905Z,30.13
2018-08-22T12:06:39.841Z,29.01
2018-08-22T12:09:44.761Z,28.87
2018-08-22T12:12:49.648Z,28.41
2018-08-22T12:15:54.545Z,28.53
2018-08-22T12:18:59.661Z,28.33
2018-08-22T12:22:04.593Z,28.29
2018-08-22T12:25:09.513Z,28.87
2018-08-22T12:28:14.411Z,27.66
2018-08-22T12:31:19.713Z,27.52
2018-08-22T12:34:24.609Z,27.01
2018-08-22T12:37:29.509Z,27.66
2018-08-22T12:40:34.421Z,27.72
2018-08-22T12:43:39.344Z,27.62
2018-08-22T12:46:44.269Z,28.99
2018-08-22T12:49:49.612Z,29.34
2018-08-22T12:52:54.520Z,27.99
2018-08-22T12:55:59.413Z,27.84
2018-08-22T12:59:04.446Z,27.77
2018-08-22T13:02:09.429Z,28.99
2018-08-22T13:05:14.367Z,29.50
2018-08-22T13:08:26.532Z,28.06
2018-08-22T13:11:31.468Z,27.19
2018-08-22T13:14:36.381Z,26.61
2018-08-22T13:17:42.026Z,25.70
2018-08-22T13:20:47.072Z,26.58
2018-08-22T13:23:54.008Z,24.76
2018-08-22T13:26:58.949Z,26.43
2018-08-22T13:30:04.386Z,24.82
2018-08-22T13:33:09.292Z,25.59
2018-08-22T13:36:14.616Z,25.06
2018-08-22T13:39:19.512Z,26.07
2018-08-22T13:46:23.828Z,27.94
2018-08-22T13:49:28.761Z,27.78
2018-08-22T13:52:33.697Z,27.55
2018-08-22T13:55:38.605Z,27.58
2018-08-22T13:58:43.528Z,26.89
2018-08-22T14:01:48.754Z,26.67
2018-08-22T14:04:53.545Z,27.18
2018-08-22T14:07:58.490Z,26.93
2018-08-22T14:11:03.738Z,27.04
2018-08-22T14:14:08.645Z,27.35
2018-08-22T14:17:21.589Z,26.27
2018-08-22T14:20:26.828Z,25.83
2018-08-22T14:23:32.487Z,26.54
2018-08-22T14:26:37.852Z,25.77
2018-08-22T14:29:43.048Z,25.65
2018-08-22T14:32:48.114Z,25.16
2018-08-22T14:35:53.437Z,25.36
2018-08-22T14:38:58.670Z,25.93
2018-08-22T14:42:03.629Z,25.49
2018-08-22T14:45:09.052Z,26.23
2018-08-22T14:48:14.173Z,25.70
2018-08-22T14:51:19.467Z,26.35
2018-08-22T14:54:24.694Z,26.20
2018-08-22T14:57:29.904Z,26.52
2018-08-22T15:00:35.201Z,25.96
2018-08-22T15:03:40.409Z,27.10
2018-08-22T15:06:45.577Z,25.93
2018-08-22T15:09:50.833Z,26.64
2018-08-22T15:12:56.198Z,25.83
2018-08-22T15:16:01.143Z,26.52
2018-08-22T15:19:06.430Z,26.60
2018-08-22T15:22:11.365Z,27.00
2018-08-22T15:25:16.683Z,27.04
2018-08-22T15:28:21.602Z,27.73
2018-08-22T15:31:26.512Z,26.30
2018-08-22T15:34:48.238Z,25.84
2018-08-22T15:37:53.173Z,27.96
2018-08-22T15:40:58.566Z,27.62
2018-08-22T15:44:03.425Z,27.15
2018-08-22T15:47:08.671Z,27.23
2018-08-22T15:50:13.577Z,28.14
2018-08-22T15:53:18.581Z,27.31
2018-08-22T15:56:23.414Z,28.49
2018-08-22T15:59:28.733Z,28.67
2018-08-22T16:02:34.814Z,28.50
2018-08-22T16:05:40.628Z,28.27
2018-08-22T16:08:45.627Z,28.80
2018-08-22T16:11:50.458Z,28.31
2018-08-22T16:14:55.421Z,28.22
2018-08-22T16:18:04.954Z,28.46
2018-08-22T16:21:10.523Z,29.32
2018-08-22T16:24:15.774Z,29.45
2018-08-22T16:27:20.793Z,29.05
2018-08-22T16:30:26.901Z,28.84
2018-08-22T16:33:32.401Z,29.21
2018-08-22T16:36:38.793Z,28.74
2018-08-22T16:39:44.123Z,29.08
2018-08-22T16:42:49.462Z,28.12
2018-08-22T16:45:54.455Z,29.41
2018-08-22T16:48:59.685Z,30.50
2018-08-22T16:52:05.214Z,30.30
2018-08-22T16:55:16.698Z,30.29
2018-08-22T16:58:22.051Z,30.25
2018-08-22T17:01:27.505Z,30.69
2018-08-22T17:04:32.452Z,31.32
2018-08-22T17:07:38.164Z,31.67
2018-08-22T17:10:55.077Z,32.54
2018-08-22T17:14:00.382Z,33.53
2018-08-22T17:17:05.828Z,35.55
2018-08-22T17:20:11.094Z,35.92
2018-08-22T17:23:16.564Z,36.01
2018-08-22T17:26:22.334Z,35.22
2018-08-22T17:29:27.674Z,36.46
2018-08-22T17:32:32.740Z,36.78
2018-08-22T17:35:42.968Z,37.34
2018-08-22T17:38:52.613Z,38.07
2018-08-22T17:41:57.700Z,39.11
2018-08-22T17:45:02.845Z,39.47
2018-08-22T17:48:07.792Z,38.91
2018-08-22T17:51:12.738Z,40.49
2018-08-22T17:54:31.429Z,41.01
2018-08-22T17:57:36.384Z,41.61
2018-08-22T18:00:41.393Z,41.85
2018-08-22T18:03:46.341Z,42.44
2018-08-22T18:06:51.288Z,41.47
2018-08-22T18:09:56.255Z,42.62
2018-08-22T18:13:08.803Z,44.47
2018-08-22T18:16:13.770Z,44.51
2018-08-22T18:19:18.754Z,44.41
2018-08-22T18:22:27.281Z,44.84
2018-08-22T18:25:32.235Z,45.05
2018-08-22T18:28:37.184Z,44.76
2018-08-22T18:31:42.125Z,46.74
2018-08-22T18:35:06.877Z,47.42
2018-08-22T18:38:11.769Z,46.56
2018-08-22T18:41:16.717Z,46.86
2018-08-22T18:44:21.689Z,47.11
2018-08-22T18:47:26.636Z,48.50
2018-08-22T18:50:31.591Z,47.93
2018-08-22T18:53:36.517Z,49.10
2018-08-22T18:56:45.016Z,50.05
2018-08-22T18:59:49.916Z,50.93
2018-08-22T19:02:56.144Z,50.57
2018-08-22T19:06:01.052Z,49.91
2018-08-22T19:09:06.005Z,50.93
2018-08-22T19:12:10.924Z,51.68
2018-08-22T19:15:15.821Z,51.11
2018-08-22T19:18:20.929Z,51.75
2018-08-22T19:21:25.854Z,53.38
2018-08-22T19:24:30.775Z,53.25
2018-08-22T19:27:35.678Z,53.86
2018-08-22T19:30:40.586Z,55.18
2018-08-22T19:33:45.493Z,54.45
2018-08-22T19:36:50.400Z,54.86
2018-08-22T19:40:04.794Z,54.72
2018-08-22T19:43:09.904Z,54.76
2018-08-22T19:46:14.796Z,54.85
2018-08-22T19:49:19.693Z,54.09
2018-08-22T19:52:24.740Z,54.75
2018-08-22T19:55:30.185Z,55.45
2018-08-22T19:58:35.089Z,56.34
2018-08-22T20:01:40.073Z,56.90
2018-08-22T20:04:45.022Z,57.03
2018-08-22T20:07:49.964Z,57.54
2018-08-22T20:10:54.953Z,57.93
2018-08-22T20:14:01.436Z,57.33
2018-08-22T20:17:06.511Z,57.75
2018-08-22T20:20:11.740Z,57.86
2018-08-22T20:23:16.833Z,57.98
2018-08-22T20:26:22.297Z,58.01
2018-08-22T20:29:27.829Z,57.56
2018-08-22T20:32:32.773Z,57.28
2018-08-22T20:35:40.430Z,57.71
2018-08-22T20:38:45.421Z,58.73
2018-08-22T20:41:51.532Z,59.02
2018-08-22T20:44:56.465Z,58.95
2018-08-22T20:48:08.834Z,58.08
2018-08-22T20:51:13.768Z,59.21
2018-08-22T20:54:19.392Z,59.06
2018-08-22T20:57:24.977Z,59.66
2018-08-22T21:00:30.784Z,60.42
2018-08-22T21:03:35.713Z,61.18
2018-08-22T21:06:40.648Z,60.63
2018-08-22T21:09:45.580Z,62.14
2018-08-22T21:12:50.877Z,61.20
2018-08-22T21:15:56.208Z,60.90
2018-08-22T21:19:01.148Z,61.19
2018-08-22T21:22:18.117Z,61.15
2018-08-22T21:25:23.057Z,60.89
2018-08-22T21:28:33.505Z,60.63
2018-08-22T21:31:38.450Z,61.46
2018-08-22T21:34:43.395Z,61.96
2018-08-22T21:37:48.332Z,61.44
2018-08-22T21:40:53.260Z,61.01
2018-08-22T21:43:58.212Z,62.21
2018-08-22T21:47:08.100Z,61.41
2018-08-22T21:50:13.033Z,62.44
2018-08-22T21:53:18.001Z,62.62
2018-08-22T21:56:22.928Z,61.47
2018-08-22T22:03:37.008Z,62.30
2018-08-22T22:06:41.917Z,63.03
2018-08-22T22:12:51.621Z,63.30
2018-08-22T22:15:57.712Z,62.45
2018-08-22T22:19:02.652Z,63.55
2018-08-22T22:22:07.844Z,63.34
2018-08-22T22:25:12.743Z,63.51
2018-08-22T22:28:17.946Z,63.50
2018-08-22T22:31:22.834Z,63.41
2018-08-22T22:34:27.741Z,64.69
2018-08-22T22:37:32.632Z,64.62
2018-08-22T22:40:38.310Z,64.80
2018-08-22T22:43:43.222Z,64.05
2018-08-22T22:46:48.117Z,63.99
2018-08-22T22:49:53.053Z,64.09
2018-08-22T22:52:58.190Z,65.31
2018-08-22T22:56:03.392Z,65.32
2018-08-22T22:59:08.316Z,65.02
2018-08-22T23:02:13.213Z,65.70
2018-08-22T23:05:18.398Z,65.55
2018-08-22T23:08:23.321Z,66.06
2018-08-22T23:11:28.246Z,66.58
2018-08-22T23:14:33.153Z,66.60
2018-08-22T23:17:38.357Z,65.84
2018-08-22T23:20:43.738Z,65.54
2018-08-22T23:23:48.653Z,66.81
2018-08-22T23:26:53.864Z,66.85
2018-08-22T23:29:58.795Z,66.19
2018-08-22T23:33:04.275Z,66.81
2018-08-22T23:36:09.189Z,66.58
2018-08-22T23:39:14.084Z,67.45
2018-08-22T23:42:18.999Z,66.57
2018-08-22T23:45:24.029Z,67.34
2018-08-22T23:48:32.912Z,67.61
2018-08-22T23:51:37.832Z,67.93
2018-08-22T23:54:44.768Z,68.42
2018-08-22T23:57:52.754Z,67.16
